Current | Forecast
Updated: 12:56 AM JST on October 20, 2017
Observed at Okinawa, Japan
Temperature 76°F
Humidity 90%
Dew Point 73°F
Wind NE at 7 mph
Pressure 29.77 in (Falling)
Conditions Clear
Visibility 10.0 miles
UV 0 out of 16
Clouds Clear (CLR) : -
Yesterday's Maximum 85°F
Yesterday's Minimum 75°F approx.
Yesterday's Cooling Degree Days 15 approx.
Sunrise6:29 AM JST
Sunset5:55 PM JST
Moon Rise6:36 AM JST
Moon Set6:28 PM JST
Moon PhaseMoon Phase
Waning Crescent
Raw METARMETAR RODN 191556Z AUTO 05006KT 10SM CLR 25/23 A2975 RMK AO2 SLP079 T02470229


Monday
. High: 78° F.
Tuesday
. High: 77° F.
Wednesday
. High: 77° F.
Thursday
. High: 78° F.
Friday
. High: 80° F.
Saturday
. High: 80° F.
Sunday
. High: 78° F.
Monday
. High: 80° F.

Units: English | Metric

Find the Weather for any City, State or Zipcode, or Country:

U.S. State List | Severe Weather | Tropical Storms | Ski Conditions
United States | Canada | Central America | South America | Asia | Europe | Australia | Africa | Islands

Weather Underground

© Copyright 2017
The Weather Company, LLC